Weather History for Thedford, NE

Change the Weather History Date:

Monday, September 10, 2012

  Actual Average (KLBF) Record (KLBF)
Temperature  
Mean Temperature 76 °F 65 °F  
Max Temperature 98 °F 80 °F 100 °F (1895)
Min Temperature 55 °F 50 °F 29 °F (1959)
Degree Days  
Heating Degree Days 0 3  
Month to date heating degree days 24  
Since 1 July heating degree days 44  
Cooling Degree Days 11 3  
Month to date cooling degree days 40  
Year to date cooling degree days 735  
Growing Degree Days 26 (Base 50)    
Moisture  
Dew Point 37 °F    
Average Humidity 30    
Maximum Humidity 63    
Minimum Humidity 10    
Precipitation  
Precipitation 0.00 in 0.05 in 1.14 in (1985)
Month to date precipitation 0.48  
Year to date precipitation 16.70  
Snow  
Snow 0.00 in 0.00 in 0.00 in (2002)
Month to date snowfall 0.0  
Since 1 July snowfall 0.0  
Since 1 September snowfall 0.0  
Snow Depth -    
Sea Level Pressure  
Sea Level Pressure 29.90 in    
Wind  
Wind Speed 16 mph (South)    
Max Wind Speed 25 mph    
Max Gust Speed 34 mph    
Visibility 10 miles    
Events      
T = Trace of Precipitation, MM = Missing Value Source: NWS Daily Summary

Daily Weather History Graph

Daily Weather History Graph

Search for Another Location

Airport:

Trip Planner

Search our weather history database for the weather conditions in past years. The results will help you decide how hot, cold, wet, or windy it might be!

Date:

Astronomy

Sep. 10, 2012 Rise Set
Actual Time 7:17 AM CDT 7:59 PM CDT
Civil Twilight 6:49 AM CDT 8:27 PM CDT
Nautical Twilight 6:16 AM CDT 9:00 PM CDT
Astronomical Twilight 5:41 AM CDT 9:35 PM CDT
Moon 1:36 AM CDT (9/10) 4:34 PM CDT (9/10)
Length of Visible Light 13h 38m
Length of Day
12h 41m
Waning Crescent, 30% of the Moon is Illuminated
Sep 10
Waning Crescent
Sep 15
New
Sep 22
First Quarter
Sep 29
Full
Oct 8
Last Quarter

Hourly Weather History & Observations

Time (CDT) Temp. Dew Point Humidity Pressure Visibility Wind Dir Wind Speed Gust Speed Precip Events Conditions
12:15 AM 65.5 °F 39.9 °F 39% 30.04 in 10.0 mi South 18.4 mph 24.2 mph N/A   Clear
12:35 AM 65.3 °F 40.5 °F 40% 30.04 in 10.0 mi South 18.4 mph 25.3 mph N/A   Clear
12:55 AM 64.4 °F 41.0 °F 42% 30.04 in 10.0 mi South 16.1 mph 23.0 mph N/A   Clear
1:15 AM 63.7 °F 41.2 °F 44% 30.04 in 10.0 mi South 17.3 mph 21.9 mph N/A   Clear
1:35 AM 62.8 °F 41.5 °F 46% 30.03 in 10.0 mi South 12.7 mph 20.7 mph N/A   Clear
1:55 AM 62.2 °F 41.5 °F 47% 30.03 in 10.0 mi South 13.8 mph 19.6 mph N/A   Clear
2:15 AM 61.2 °F 41.9 °F 49% 30.03 in 10.0 mi South 15.0 mph 19.6 mph N/A   Clear
2:35 AM 60.4 °F 41.9 °F 50% 30.03 in 10.0 mi South 12.7 mph - N/A   Clear
2:55 AM 60.4 °F 41.9 °F 50% 30.02 in 10.0 mi South 15.0 mph - N/A   Clear
3:15 AM 60.8 °F 41.9 °F 50% 30.02 in 10.0 mi South 15.0 mph 21.9 mph N/A   Clear
3:35 AM 61.2 °F 41.9 °F 49% 30.02 in 10.0 mi South 13.8 mph 21.9 mph N/A   Clear
3:55 AM 60.8 °F 41.9 °F 50% 30.01 in 10.0 mi South 12.7 mph 19.6 mph N/A   Clear
4:15 AM 59.4 °F 41.9 °F 52% 30.01 in 10.0 mi South 8.1 mph - N/A   Clear
4:35 AM 58.5 °F 42.1 °F 55% 30.01 in 10.0 mi South 9.2 mph - N/A   Clear
4:55 AM 57.7 °F 42.3 °F 56% 30.00 in 10.0 mi South 9.2 mph - N/A   Clear
5:15 AM 57.9 °F 42.4 °F 56% 29.99 in 10.0 mi South 11.5 mph - N/A   Clear
5:35 AM 57.2 °F 42.4 °F 58% 29.98 in 10.0 mi South 10.4 mph - N/A   Clear
5:55 AM 56.5 °F 42.8 °F 60% 29.98 in 10.0 mi South 6.9 mph - N/A   Clear
6:15 AM 56.1 °F 42.8 °F 61% 29.97 in 10.0 mi South 10.4 mph - N/A   Clear
6:35 AM 55.9 °F 42.8 °F 61% 29.96 in 10.0 mi South 12.7 mph - N/A   Clear
6:55 AM 55.8 °F 42.8 °F 62% 29.96 in 10.0 mi South 13.8 mph 19.6 mph N/A   Clear
7:15 AM 55.8 °F 42.8 °F 62% 29.96 in 10.0 mi South 10.4 mph - N/A   Clear
7:35 AM 55.6 °F 43.0 °F 63% 29.96 in 10.0 mi South 10.4 mph - N/A   Clear
7:55 AM 56.3 °F 43.0 °F 61% 29.95 in 10.0 mi South 13.8 mph - N/A   Clear
8:15 AM 57.4 °F 43.0 °F 59% 29.95 in 10.0 mi South 17.3 mph - N/A   Clear
8:35 AM 59.2 °F 42.8 °F 55% 29.94 in 10.0 mi South 17.3 mph 25.3 mph N/A   Clear
8:55 AM 61.3 °F 42.3 °F 50% 29.92 in 10.0 mi South 19.6 mph 27.6 mph N/A   Clear
9:15 AM 63.1 °F 41.9 °F 46% 29.93 in 10.0 mi SSW 15.0 mph 21.9 mph N/A   Clear
9:35 AM 66.4 °F 40.8 °F 39% 29.93 in 10.0 mi SW 11.5 mph 18.4 mph N/A   Clear
9:55 AM 68.9 °F 39.2 °F 34% 29.94 in 10.0 mi SSW 12.7 mph 20.7 mph N/A   Clear
10:15 AM 69.8 °F 38.8 °F 32% 29.93 in 10.0 mi SSW 12.7 mph 21.9 mph N/A   Clear
10:35 AM 72.5 °F 38.3 °F 29% 29.92 in 10.0 mi SSW 18.4 mph 25.3 mph N/A   Clear
10:55 AM 74.3 °F 37.9 °F 27% 29.92 in 10.0 mi SSW 16.1 mph 24.2 mph N/A   Clear
11:15 AM 75.6 °F 37.6 °F 25% 29.91 in 10.0 mi SSW 19.6 mph 25.3 mph N/A   Clear
11:35 AM 78.4 °F 37.8 °F 23% 29.91 in 10.0 mi SSW 15.0 mph 21.9 mph N/A   Clear
11:55 AM 80.2 °F 37.6 °F 22% 29.90 in 10.0 mi South 19.6 mph 24.2 mph N/A   Clear
12:15 PM 82.0 °F 37.2 °F 20% 29.89 in 10.0 mi South 21.9 mph 28.8 mph N/A   Clear
12:35 PM 85.1 °F 36.1 °F 17% 29.88 in 10.0 mi SSW 20.7 mph 29.9 mph N/A   Clear
1:15 PM 88.9 °F 35.1 °F 15% 29.86 in 10.0 mi SSW 21.9 mph 32.2 mph N/A   Clear
1:35 PM 90.1 °F 35.2 °F 14% 29.85 in 10.0 mi SSW 25.3 mph 33.4 mph N/A   Clear
1:55 PM 91.6 °F 35.6 °F 14% 29.84 in 10.0 mi SSW 25.3 mph 33.4 mph N/A   Clear
2:15 PM 92.8 °F 34.9 °F 13% 29.84 in 10.0 mi South 20.7 mph 33.4 mph N/A   Clear
2:35 PM 93.4 °F 34.2 °F 12% 29.84 in 10.0 mi SSW 23.0 mph 33.4 mph N/A   Clear
2:55 PM 94.1 °F 33.6 °F 12% 29.83 in 10.0 mi SSW 25.3 mph 34.5 mph N/A   Clear
3:15 PM 95.2 °F 33.1 °F 11% 29.82 in 10.0 mi SSW 20.7 mph 28.8 mph N/A   Clear
3:35 PM 95.7 °F 32.2 °F 11% 29.82 in 10.0 mi SSW 23.0 mph 29.9 mph N/A   Clear
3:55 PM 96.8 °F 32.0 °F 10% 29.80 in 10.0 mi SSW 23.0 mph 31.1 mph N/A   Clear
4:15 PM 97.5 °F 31.5 °F 10% 29.80 in 10.0 mi SW 20.7 mph 29.9 mph N/A   Clear
4:35 PM 97.3 °F 31.6 °F 10% 29.80 in 10.0 mi SW 19.6 mph 29.9 mph N/A   Clear
4:55 PM 97.0 °F 31.1 °F 10% 29.80 in 10.0 mi SSW 16.1 mph 27.6 mph N/A   Clear
5:15 PM 97.2 °F 31.3 °F 10% 29.80 in 10.0 mi SSW 18.4 mph 25.3 mph N/A   Clear
5:35 PM 97.5 °F 32.0 °F 10% 29.79 in 10.0 mi SSW 16.1 mph 26.5 mph N/A   Clear
5:55 PM 97.3 °F 31.8 °F 10% 29.78 in 10.0 mi South 16.1 mph 20.7 mph N/A   Clear
6:15 PM 97.0 °F 31.8 °F 10% 29.78 in 10.0 mi South 19.6 mph 24.2 mph N/A   Clear
6:35 PM 96.3 °F 31.1 °F 10% 29.78 in 10.0 mi South 19.6 mph 25.3 mph N/A   Clear
6:55 PM 95.5 °F 30.9 °F 10% 29.78 in 10.0 mi South 18.4 mph 24.2 mph N/A   Clear
7:15 PM 94.3 °F 29.8 °F 10% 29.78 in 10.0 mi South 16.1 mph - N/A   Clear
7:35 PM 92.7 °F 28.8 °F 10% 29.78 in 10.0 mi South 18.4 mph 23.0 mph N/A   Clear
7:55 PM 90.5 °F 27.9 °F 11% 29.78 in 10.0 mi South 15.0 mph - N/A   Clear
8:15 PM 88.7 °F 26.8 °F 11% 29.78 in 10.0 mi South 12.7 mph - N/A   Clear
8:35 PM 87.6 °F 26.8 °F 11% 29.78 in 10.0 mi South 18.4 mph 26.5 mph N/A   Clear
8:55 PM 86.2 °F 28.8 °F 13% 29.79 in 10.0 mi South 21.9 mph 27.6 mph N/A   Clear
9:15 PM 85.3 °F 29.3 °F 13% 29.80 in 10.0 mi South 18.4 mph 27.6 mph N/A   Clear
9:35 PM 84.4 °F 29.3 °F 14% 29.80 in 10.0 mi South 21.9 mph 27.6 mph N/A   Clear
9:55 PM 83.3 °F 29.3 °F 14% 29.80 in 10.0 mi South 18.4 mph 25.3 mph N/A   Clear
10:15 PM 82.6 °F 29.7 °F 15% 29.81 in 10.0 mi South 21.9 mph 27.6 mph N/A   Clear
10:35 PM 82.2 °F 29.7 °F 15% 29.81 in 10.0 mi South 20.7 mph 28.8 mph N/A   Clear
10:55 PM 81.1 °F 30.0 °F 16% 29.82 in 10.0 mi South 17.3 mph 28.8 mph N/A   Clear
11:15 PM 80.2 °F 31.3 °F 17% 29.82 in 10.0 mi South 18.4 mph 26.5 mph N/A   Clear
11:35 PM 79.3 °F 32.7 °F 18% 29.82 in 10.0 mi South 18.4 mph 25.3 mph N/A   Clear
11:55 PM 79.0 °F 34.3 °F 20% 29.83 in 10.0 mi South 19.6 mph 26.5 mph N/A   Clear